sensor_id;sensor_type;location;lat;lon;timestamp;P1;durP1;ratioP1;P2;durP2;ratioP2
60308;SDS011;50313;52.894;6.492;2023-04-24T00:00:13;0.40;;;0.40;;
60308;SDS011;50313;52.894;6.492;2023-04-24T00:02:40;0.57;;;0.57;;
60308;SDS011;50313;52.894;6.492;2023-04-24T00:05:09;0.30;;;0.30;;
60308;SDS011;50313;52.894;6.492;2023-04-24T00:07:34;0.50;;;0.50;;
60308;SDS011;50313;52.894;6.492;2023-04-24T00:10:00;0.40;;;0.40;;
60308;SDS011;50313;52.894;6.492;2023-04-24T00:12:26;0.20;;;0.20;;
60308;SDS011;50313;52.894;6.492;2023-04-24T00:14:52;0.30;;;0.30;;
60308;SDS011;50313;52.894;6.492;2023-04-24T00:17:18;0.20;;;0.20;;
60308;SDS011;50313;52.894;6.492;2023-04-24T00:20:11;0.20;;;0.20;;
60308;SDS011;50313;52.894;6.492;2023-04-24T00:22:37;0.88;;;0.40;;
60308;SDS011;50313;52.894;6.492;2023-04-24T00:25:03;0.35;;;0.35;;
60308;SDS011;50313;52.894;6.492;2023-04-24T00:27:28;0.40;;;0.40;;
60308;SDS011;50313;52.894;6.492;2023-04-24T00:29:55;0.60;;;0.60;;
60308;SDS011;50313;52.894;6.492;2023-04-24T00:32:20;0.30;;;0.30;;
60308;SDS011;50313;52.894;6.492;2023-04-24T00:34:46;0.47;;;0.45;;
60308;SDS011;50313;52.894;6.492;2023-04-24T00:37:12;0.55;;;0.40;;
60308;SDS011;50313;52.894;6.492;2023-04-24T00:39:37;0.30;;;0.30;;
60308;SDS011;50313;52.894;6.492;2023-04-24T00:42:03;0.55;;;0.55;;
60308;SDS011;50313;52.894;6.492;2023-04-24T00:44:31;0.43;;;0.43;;
60308;SDS011;50313;52.894;6.492;2023-04-24T00:46:58;0.43;;;0.43;;
60308;SDS011;50313;52.894;6.492;2023-04-24T00:49:25;0.30;;;0.30;;
60308;SDS011;50313;52.894;6.492;2023-04-24T00:51:50;0.47;;;0.47;;
60308;SDS011;50313;52.894;6.492;2023-04-24T00:54:16;0.30;;;0.28;;
60308;SDS011;50313;52.894;6.492;2023-04-24T00:56:44;0.90;;;0.75;;
60308;SDS011;50313;52.894;6.492;2023-04-24T00:59:11;0.20;;;0.20;;
60308;SDS011;50313;52.894;6.492;2023-04-24T01:01:38;3.00;;;0.60;;
60308;SDS011;50313;52.894;6.492;2023-04-24T01:04:07;0.40;;;0.40;;
60308;SDS011;50313;52.894;6.492;2023-04-24T01:06:34;0.40;;;0.40;;
60308;SDS011;50313;52.894;6.492;2023-04-24T01:09:05;0.68;;;0.68;;
60308;SDS011;50313;52.894;6.492;2023-04-24T01:11:35;0.70;;;0.68;;
60308;SDS011;50313;52.894;6.492;2023-04-24T01:14:01;0.40;;;0.40;;
60308;SDS011;50313;52.894;6.492;2023-04-24T01:16:27;0.80;;;0.80;;
60308;SDS011;50313;52.894;6.492;2023-04-24T01:18:53;1.35;;;1.25;;
60308;SDS011;50313;52.894;6.492;2023-04-24T01:21:19;1.10;;;0.65;;
60308;SDS011;50313;52.894;6.492;2023-04-24T01:23:46;0.60;;;0.60;;
60308;SDS011;50313;52.894;6.492;2023-04-24T01:26:13;0.70;;;0.70;;
60308;SDS011;50313;52.894;6.492;2023-04-24T01:28:40;0.60;;;0.50;;
60308;SDS011;50313;52.894;6.492;2023-04-24T01:31:05;0.73;;;0.73;;
60308;SDS011;50313;52.894;6.492;2023-04-24T01:33:32;0.50;;;0.50;;
60308;SDS011;50313;52.894;6.492;2023-04-24T01:35:57;0.77;;;0.77;;
60308;SDS011;50313;52.894;6.492;2023-04-24T01:38:23;0.93;;;0.93;;
60308;SDS011;50313;52.894;6.492;2023-04-24T01:40:50;1.15;;;0.80;;
60308;SDS011;50313;52.894;6.492;2023-04-24T01:43:16;1.13;;;1.13;;
60308;SDS011;50313;52.894;6.492;2023-04-24T01:45:42;1.25;;;1.05;;
60308;SDS011;50313;52.894;6.492;2023-04-24T01:48:08;1.48;;;1.00;;
60308;SDS011;50313;52.894;6.492;2023-04-24T01:50:36;1.05;;;0.95;;
60308;SDS011;50313;52.894;6.492;2023-04-24T01:53:02;1.27;;;1.20;;
60308;SDS011;50313;52.894;6.492;2023-04-24T01:55:28;1.02;;;0.98;;
60308;SDS011;50313;52.894;6.492;2023-04-24T01:57:55;1.05;;;1.05;;
60308;SDS011;50313;52.894;6.492;2023-04-24T02:00:21;0.85;;;0.70;;
60308;SDS011;50313;52.894;6.492;2023-04-24T02:02:47;0.95;;;0.82;;
60308;SDS011;50313;52.894;6.492;2023-04-24T02:05:13;1.55;;;1.45;;
60308;SDS011;50313;52.894;6.492;2023-04-24T02:07:41;2.08;;;1.55;;
60308;SDS011;50313;52.894;6.492;2023-04-24T02:10:07;1.70;;;0.82;;
60308;SDS011;50313;52.894;6.492;2023-04-24T02:12:33;0.38;;;0.38;;
60308;SDS011;50313;52.894;6.492;2023-04-24T02:14:59;0.73;;;0.73;;
60308;SDS011;50313;52.894;6.492;2023-04-24T02:17:24;1.73;;;1.40;;
60308;SDS011;50313;52.894;6.492;2023-04-24T02:19:51;2.63;;;1.23;;
60308;SDS011;50313;52.894;6.492;2023-04-24T02:22:16;1.40;;;1.30;;
60308;SDS011;50313;52.894;6.492;2023-04-24T02:24:42;0.60;;;0.60;;
60308;SDS011;50313;52.894;6.492;2023-04-24T02:27:08;1.02;;;0.90;;
60308;SDS011;50313;52.894;6.492;2023-04-24T02:29:33;0.85;;;0.80;;
60308;SDS011;50313;52.894;6.492;2023-04-24T02:31:59;0.60;;;0.60;;
60308;SDS011;50313;52.894;6.492;2023-04-24T02:34:25;1.00;;;1.00;;
60308;SDS011;50313;52.894;6.492;2023-04-24T02:36:50;1.20;;;1.20;;
60308;SDS011;50313;52.894;6.492;2023-04-24T02:39:18;0.38;;;0.38;;
60308;SDS011;50313;52.894;6.492;2023-04-24T02:41:44;0.73;;;0.73;;
60308;SDS011;50313;52.894;6.492;2023-04-24T02:44:10;0.95;;;0.70;;
60308;SDS011;50313;52.894;6.492;2023-04-24T02:46:36;1.95;;;1.38;;
60308;SDS011;50313;52.894;6.492;2023-04-24T02:49:02;1.38;;;0.75;;
60308;SDS011;50313;52.894;6.492;2023-04-24T02:51:28;1.27;;;0.98;;
60308;SDS011;50313;52.894;6.492;2023-04-24T02:53:54;1.00;;;1.00;;
60308;SDS011;50313;52.894;6.492;2023-04-24T02:56:22;0.82;;;0.82;;
60308;SDS011;50313;52.894;6.492;2023-04-24T02:58:48;0.50;;;0.50;;
60308;SDS011;50313;52.894;6.492;2023-04-24T03:01:13;1.10;;;0.82;;
60308;SDS011;50313;52.894;6.492;2023-04-24T03:03:39;0.28;;;0.28;;
60308;SDS011;50313;52.894;6.492;2023-04-24T03:06:05;0.80;;;0.80;;
60308;SDS011;50313;52.894;6.492;2023-04-24T03:08:33;0.75;;;0.75;;
60308;SDS011;50313;52.894;6.492;2023-04-24T03:10:59;0.57;;;0.57;;
60308;SDS011;50313;52.894;6.492;2023-04-24T03:13:25;0.80;;;0.80;;
60308;SDS011;50313;52.894;6.492;2023-04-24T03:15:50;0.93;;;0.60;;
60308;SDS011;50313;52.894;6.492;2023-04-24T03:18:16;0.82;;;0.60;;
60308;SDS011;50313;52.894;6.492;2023-04-24T03:20:42;0.50;;;0.50;;
60308;SDS011;50313;52.894;6.492;2023-04-24T03:23:11;0.65;;;0.65;;
60308;SDS011;50313;52.894;6.492;2023-04-24T03:25:37;0.98;;;0.95;;
60308;SDS011;50313;52.894;6.492;2023-04-24T03:28:05;1.02;;;0.82;;
60308;SDS011;50313;52.894;6.492;2023-04-24T03:30:31;1.20;;;1.00;;
60308;SDS011;50313;52.894;6.492;2023-04-24T03:32:57;0.30;;;0.30;;
60308;SDS011;50313;52.894;6.492;2023-04-24T03:35:22;0.43;;;0.43;;
60308;SDS011;50313;52.894;6.492;2023-04-24T03:37:48;0.88;;;0.75;;
60308;SDS011;50313;52.894;6.492;2023-04-24T03:40:14;0.45;;;0.45;;
60308;SDS011;50313;52.894;6.492;2023-04-24T03:42:39;0.63;;;0.63;;
60308;SDS011;50313;52.894;6.492;2023-04-24T03:45:05;1.17;;;1.08;;
60308;SDS011;50313;52.894;6.492;2023-04-24T03:47:32;2.17;;;1.05;;
60308;SDS011;50313;52.894;6.492;2023-04-24T03:49:58;0.70;;;0.70;;
60308;SDS011;50313;52.894;6.492;2023-04-24T03:52:23;0.77;;;0.57;;
60308;SDS011;50313;52.894;6.492;2023-04-24T03:54:49;0.70;;;0.70;;
60308;SDS011;50313;52.894;6.492;2023-04-24T03:57:15;1.35;;;1.02;;
60308;SDS011;50313;52.894;6.492;2023-04-24T03:59:40;0.98;;;0.98;;
60308;SDS011;50313;52.894;6.492;2023-04-24T04:02:06;0.45;;;0.45;;
60308;SDS011;50313;52.894;6.492;2023-04-24T04:04:32;0.60;;;0.60;;
60308;SDS011;50313;52.894;6.492;2023-04-24T04:06:58;0.35;;;0.35;;
60308;SDS011;50313;52.894;6.492;2023-04-24T04:09:32;0.45;;;0.45;;
60308;SDS011;50313;52.894;6.492;2023-04-24T04:11:58;0.55;;;0.55;;
60308;SDS011;50313;52.894;6.492;2023-04-24T04:14:24;0.32;;;0.32;;
60308;SDS011;50313;52.894;6.492;2023-04-24T04:16:49;0.30;;;0.30;;
60308;SDS011;50313;52.894;6.492;2023-04-24T04:19:16;0.30;;;0.30;;
60308;SDS011;50313;52.894;6.492;2023-04-24T04:21:41;0.35;;;0.35;;
60308;SDS011;50313;52.894;6.492;2023-04-24T04:24:07;0.20;;;0.20;;
60308;SDS011;50313;52.894;6.492;2023-04-24T04:26:34;0.35;;;0.35;;
60308;SDS011;50313;52.894;6.492;2023-04-24T04:29:02;0.20;;;0.20;;
60308;SDS011;50313;52.894;6.492;2023-04-24T04:31:28;0.20;;;0.20;;
60308;SDS011;50313;52.894;6.492;2023-04-24T04:33:55;0.20;;;0.20;;
60308;SDS011;50313;52.894;6.492;2023-04-24T04:36:20;0.50;;;0.50;;
60308;SDS011;50313;52.894;6.492;2023-04-24T04:38:46;0.38;;;0.38;;
60308;SDS011;50313;52.894;6.492;2023-04-24T04:41:12;0.20;;;0.20;;
60308;SDS011;50313;52.894;6.492;2023-04-24T04:43:38;0.20;;;0.20;;
60308;SDS011;50313;52.894;6.492;2023-04-24T04:46:04;0.38;;;0.38;;
60308;SDS011;50313;52.894;6.492;2023-04-24T04:48:31;0.50;;;0.50;;
60308;SDS011;50313;52.894;6.492;2023-04-24T04:50:57;0.20;;;0.20;;
60308;SDS011;50313;52.894;6.492;2023-04-24T04:53:26;0.20;;;0.20;;
60308;SDS011;50313;52.894;6.492;2023-04-24T04:55:52;0.20;;;0.20;;
60308;SDS011;50313;52.894;6.492;2023-04-24T04:58:21;0.30;;;0.30;;
60308;SDS011;50313;52.894;6.492;2023-04-24T05:00:50;0.35;;;0.35;;
60308;SDS011;50313;52.894;6.492;2023-04-24T05:03:19;5.15;;;1.75;;
60308;SDS011;50313;52.894;6.492;2023-04-24T05:05:45;0.30;;;0.30;;
60308;SDS011;50313;52.894;6.492;2023-04-24T05:08:11;0.40;;;0.40;;
60308;SDS011;50313;52.894;6.492;2023-04-24T05:10:40;0.40;;;0.40;;
60308;SDS011;50313;52.894;6.492;2023-04-24T05:13:06;0.50;;;0.50;;
60308;SDS011;50313;52.894;6.492;2023-04-24T05:15:32;0.35;;;0.35;;
60308;SDS011;50313;52.894;6.492;2023-04-24T05:17:58;0.55;;;0.55;;
60308;SDS011;50313;52.894;6.492;2023-04-24T05:20:24;0.28;;;0.28;;
60308;SDS011;50313;52.894;6.492;2023-04-24T05:22:53;0.55;;;0.55;;
60308;SDS011;50313;52.894;6.492;2023-04-24T05:25:19;0.80;;;0.63;;
60308;SDS011;50313;52.894;6.492;2023-04-24T05:27:45;0.40;;;0.38;;
60308;SDS011;50313;52.894;6.492;2023-04-24T05:30:11;0.28;;;0.28;;
60308;SDS011;50313;52.894;6.492;2023-04-24T05:32:37;0.30;;;0.30;;
60308;SDS011;50313;52.894;6.492;2023-04-24T05:35:03;1.65;;;0.82;;
60308;SDS011;50313;52.894;6.492;2023-04-24T05:37:29;0.63;;;0.63;;
60308;SDS011;50313;52.894;6.492;2023-04-24T05:39:55;0.20;;;0.20;;
60308;SDS011;50313;52.894;6.492;2023-04-24T05:42:21;0.55;;;0.47;;
60308;SDS011;50313;52.894;6.492;2023-04-24T05:44:46;0.43;;;0.43;;
60308;SDS011;50313;52.894;6.492;2023-04-24T05:47:12;0.30;;;0.30;;
60308;SDS011;50313;52.894;6.492;2023-04-24T05:49:41;0.30;;;0.30;;
60308;SDS011;50313;52.894;6.492;2023-04-24T05:52:07;0.30;;;0.30;;
60308;SDS011;50313;52.894;6.492;2023-04-24T05:54:34;0.32;;;0.32;;
60308;SDS011;50313;52.894;6.492;2023-04-24T05:57:00;0.30;;;0.30;;
60308;SDS011;50313;52.894;6.492;2023-04-24T05:59:29;0.30;;;0.30;;
60308;SDS011;50313;52.894;6.492;2023-04-24T06:01:55;0.30;;;0.30;;
60308;SDS011;50313;52.894;6.492;2023-04-24T06:04:21;0.30;;;0.30;;
60308;SDS011;50313;52.894;6.492;2023-04-24T06:06:50;0.35;;;0.35;;
60308;SDS011;50313;52.894;6.492;2023-04-24T06:09:21;0.30;;;0.30;;
60308;SDS011;50313;52.894;6.492;2023-04-24T06:11:47;0.30;;;0.30;;
60308;SDS011;50313;52.894;6.492;2023-04-24T06:14:15;0.40;;;0.40;;
60308;SDS011;50313;52.894;6.492;2023-04-24T06:16:41;0.30;;;0.30;;
60308;SDS011;50313;52.894;6.492;2023-04-24T06:19:07;0.43;;;0.43;;
60308;SDS011;50313;52.894;6.492;2023-04-24T06:21:33;0.50;;;0.50;;
60308;SDS011;50313;52.894;6.492;2023-04-24T06:23:59;0.35;;;0.35;;
60308;SDS011;50313;52.894;6.492;2023-04-24T06:26:25;0.20;;;0.20;;
60308;SDS011;50313;52.894;6.492;2023-04-24T06:28:51;0.30;;;0.30;;
60308;SDS011;50313;52.894;6.492;2023-04-24T06:31:21;0.20;;;0.20;;
60308;SDS011;50313;52.894;6.492;2023-04-24T06:33:52;0.57;;;0.57;;
60308;SDS011;50313;52.894;6.492;2023-04-24T06:36:17;0.20;;;0.20;;
60308;SDS011;50313;52.894;6.492;2023-04-24T06:38:43;0.25;;;0.25;;
60308;SDS011;50313;52.894;6.492;2023-04-24T06:41:09;0.30;;;0.30;;
60308;SDS011;50313;52.894;6.492;2023-04-24T06:43:35;0.30;;;0.30;;
60308;SDS011;50313;52.894;6.492;2023-04-24T06:46:01;0.70;;;0.68;;
60308;SDS011;50313;52.894;6.492;2023-04-24T06:48:31;0.47;;;0.47;;
60308;SDS011;50313;52.894;6.492;2023-04-24T06:50:57;0.47;;;0.47;;
60308;SDS011;50313;52.894;6.492;2023-04-24T06:53:23;2.90;;;0.98;;
60308;SDS011;50313;52.894;6.492;2023-04-24T06:55:48;0.73;;;0.70;;
60308;SDS011;50313;52.894;6.492;2023-04-24T06:58:17;0.77;;;0.77;;
60308;SDS011;50313;52.894;6.492;2023-04-24T07:00:50;1.60;;;0.70;;
60308;SDS011;50313;52.894;6.492;2023-04-24T07:03:19;0.93;;;0.93;;
60308;SDS011;50313;52.894;6.492;2023-04-24T07:05:44;0.30;;;0.30;;
60308;SDS011;50313;52.894;6.492;2023-04-24T07:08:11;1.33;;;1.00;;
60308;SDS011;50313;52.894;6.492;2023-04-24T07:10:43;1.55;;;0.90;;
60308;SDS011;50313;52.894;6.492;2023-04-24T07:13:10;0.30;;;0.30;;
60308;SDS011;50313;52.894;6.492;2023-04-24T07:15:39;0.40;;;0.40;;
60308;SDS011;50313;52.894;6.492;2023-04-24T07:18:18;1.60;;;1.50;;
60308;SDS011;50313;52.894;6.492;2023-04-24T07:20:43;1.00;;;1.00;;
60308;SDS011;50313;52.894;6.492;2023-04-24T07:23:10;1.33;;;0.63;;
60308;SDS011;50313;52.894;6.492;2023-04-24T07:25:36;0.70;;;0.70;;
60308;SDS011;50313;52.894;6.492;2023-04-24T07:28:17;1.17;;;0.43;;
60308;SDS011;50313;52.894;6.492;2023-04-24T07:30:57;0.50;;;0.50;;
60308;SDS011;50313;52.894;6.492;2023-04-24T07:33:35;0.40;;;0.40;;
60308;SDS011;50313;52.894;6.492;2023-04-24T07:36:01;0.30;;;0.30;;
60308;SDS011;50313;52.894;6.492;2023-04-24T07:38:33;0.52;;;0.52;;
60308;SDS011;50313;52.894;6.492;2023-04-24T07:41:03;0.88;;;0.63;;
60308;SDS011;50313;52.894;6.492;2023-04-24T07:43:32;0.30;;;0.30;;
60308;SDS011;50313;52.894;6.492;2023-04-24T07:46:00;0.50;;;0.50;;
60308;SDS011;50313;52.894;6.492;2023-04-24T07:48:31;8.00;;;1.33;;
60308;SDS011;50313;52.894;6.492;2023-04-24T07:50:57;3.15;;;0.60;;
60308;SDS011;50313;52.894;6.492;2023-04-24T07:53:23;0.73;;;0.73;;
60308;SDS011;50313;52.894;6.492;2023-04-24T07:55:55;0.57;;;0.52;;
60308;SDS011;50313;52.894;6.492;2023-04-24T07:58:31;0.20;;;0.20;;
60308;SDS011;50313;52.894;6.492;2023-04-24T08:00:56;1.05;;;0.95;;
60308;SDS011;50313;52.894;6.492;2023-04-24T08:03:27;2.50;;;1.35;;
60308;SDS011;50313;52.894;6.492;2023-04-24T08:05:53;0.45;;;0.45;;
60308;SDS011;50313;52.894;6.492;2023-04-24T08:08:20;0.75;;;0.75;;
60308;SDS011;50313;52.894;6.492;2023-04-24T08:10:50;0.60;;;0.60;;
60308;SDS011;50313;52.894;6.492;2023-04-24T08:13:16;0.30;;;0.30;;
60308;SDS011;50313;52.894;6.492;2023-04-24T08:15:48;0.50;;;0.50;;
60308;SDS011;50313;52.894;6.492;2023-04-24T08:18:19;10.75;;;0.73;;
60308;SDS011;50313;52.894;6.492;2023-04-24T08:20:45;3.95;;;2.30;;
60308;SDS011;50313;52.894;6.492;2023-04-24T08:23:17;0.35;;;0.35;;
60308;SDS011;50313;52.894;6.492;2023-04-24T08:25:43;1.85;;;1.38;;
60308;SDS011;50313;52.894;6.492;2023-04-24T08:28:11;1.83;;;1.73;;
60308;SDS011;50313;52.894;6.492;2023-04-24T08:30:45;1.95;;;1.77;;
60308;SDS011;50313;52.894;6.492;2023-04-24T08:33:22;6.53;;;2.28;;
60308;SDS011;50313;52.894;6.492;2023-04-24T08:35:48;1.65;;;1.13;;
60308;SDS011;50313;52.894;6.492;2023-04-24T08:38:14;2.33;;;2.13;;
60308;SDS011;50313;52.894;6.492;2023-04-24T08:40:50;3.85;;;2.72;;
60308;SDS011;50313;52.894;6.492;2023-04-24T08:43:21;4.68;;;2.05;;
60308;SDS011;50313;52.894;6.492;2023-04-24T08:45:47;3.47;;;2.47;;
60308;SDS011;50313;52.894;6.492;2023-04-24T08:48:18;2.55;;;1.15;;
60308;SDS011;50313;52.894;6.492;2023-04-24T08:50:48;2.58;;;1.92;;
60308;SDS011;50313;52.894;6.492;2023-04-24T08:53:18;0.82;;;0.82;;
60308;SDS011;50313;52.894;6.492;2023-04-24T08:55:54;0.98;;;0.98;;
60308;SDS011;50313;52.894;6.492;2023-04-24T08:58:29;40.20;;;3.55;;
60308;SDS011;50313;52.894;6.492;2023-04-24T09:00:56;6.90;;;2.10;;
60308;SDS011;50313;52.894;6.492;2023-04-24T09:03:33;3.42;;;2.17;;
60308;SDS011;50313;52.894;6.492;2023-04-24T09:06:02;3.15;;;2.90;;
60308;SDS011;50313;52.894;6.492;2023-04-24T09:08:31;3.42;;;1.85;;
60308;SDS011;50313;52.894;6.492;2023-04-24T09:10:58;1.67;;;1.33;;
60308;SDS011;50313;52.894;6.492;2023-04-24T09:13:29;14.77;;;3.13;;
60308;SDS011;50313;52.894;6.492;2023-04-24T09:15:58;5.13;;;2.97;;
60308;SDS011;50313;52.894;6.492;2023-04-24T09:18:31;4.07;;;3.78;;
60308;SDS011;50313;52.894;6.492;2023-04-24T09:21:04;8.02;;;2.38;;
60308;SDS011;50313;52.894;6.492;2023-04-24T09:23:39;5.63;;;2.92;;
60308;SDS011;50313;52.894;6.492;2023-04-24T09:26:10;2.25;;;2.08;;
60308;SDS011;50313;52.894;6.492;2023-04-24T09:28:36;4.70;;;2.22;;
60308;SDS011;50313;52.894;6.492;2023-04-24T09:37:38;4.70;;;1.85;;
60308;SDS011;50313;52.894;6.492;2023-04-24T09:40:20;3.50;;;2.40;;
60308;SDS011;50313;52.894;6.492;2023-04-24T09:42:56;3.00;;;1.13;;
60308;SDS011;50313;52.894;6.492;2023-04-24T09:45:36;0.57;;;0.57;;
60308;SDS011;50313;52.894;6.492;2023-04-24T09:48:13;2.13;;;1.50;;
60308;SDS011;50313;52.894;6.492;2023-04-24T09:51:01;3.35;;;2.17;;
60308;SDS011;50313;52.894;6.492;2023-04-24T09:53:47;1.83;;;1.73;;
60308;SDS011;50313;52.894;6.492;2023-04-24T09:56:17;2.53;;;1.38;;
60308;SDS011;50313;52.894;6.492;2023-04-24T09:58:48;0.50;;;0.50;;
60308;SDS011;50313;52.894;6.492;2023-04-24T10:01:29;2.25;;;1.17;;
60308;SDS011;50313;52.894;6.492;2023-04-24T10:03:58;1.60;;;1.50;;
60308;SDS011;50313;52.894;6.492;2023-04-24T10:06:36;2.13;;;1.92;;
60308;SDS011;50313;52.894;6.492;2023-04-24T10:09:02;13.93;;;1.75;;
60308;SDS011;50313;52.894;6.492;2023-04-24T10:11:38;0.57;;;0.57;;
60308;SDS011;50313;52.894;6.492;2023-04-24T10:14:24;1.58;;;1.50;;
60308;SDS011;50313;52.894;6.492;2023-04-24T10:16:56;1.75;;;1.65;;
60308;SDS011;50313;52.894;6.492;2023-04-24T10:19:28;1.95;;;1.17;;
60308;SDS011;50313;52.894;6.492;2023-04-24T10:21:55;1.55;;;0.77;;
60308;SDS011;50313;52.894;6.492;2023-04-24T10:24:27;2.53;;;1.25;;
60308;SDS011;50313;52.894;6.492;2023-04-24T10:26:54;1.80;;;1.20;;
60308;SDS011;50313;52.894;6.492;2023-04-24T10:29:34;1.27;;;1.17;;
60308;SDS011;50313;52.894;6.492;2023-04-24T10:32:06;1.40;;;1.30;;
60308;SDS011;50313;52.894;6.492;2023-04-24T10:34:37;4.38;;;1.40;;
60308;SDS011;50313;52.894;6.492;2023-04-24T10:37:03;0.30;;;0.30;;
60308;SDS011;50313;52.894;6.492;2023-04-24T10:39:31;1.90;;;1.33;;
60308;SDS011;50313;52.894;6.492;2023-04-24T10:42:01;0.95;;;0.90;;
60308;SDS011;50313;52.894;6.492;2023-04-24T10:44:43;1.13;;;0.77;;
60308;SDS011;50313;52.894;6.492;2023-04-24T10:50:52;2.63;;;1.17;;
60308;SDS011;50313;52.894;6.492;2023-04-24T10:53:21;0.73;;;0.73;;
60308;SDS011;50313;52.894;6.492;2023-04-24T10:56:22;4.40;;;1.90;;
60308;SDS011;50313;52.894;6.492;2023-04-24T10:58:51;1.27;;;0.50;;
60308;SDS011;50313;52.894;6.492;2023-04-24T11:01:25;1.85;;;1.70;;
60308;SDS011;50313;52.894;6.492;2023-04-24T11:04:02;1.90;;;1.80;;
60308;SDS011;50313;52.894;6.492;2023-04-24T11:06:36;0.90;;;0.90;;
60308;SDS011;50313;52.894;6.492;2023-04-24T11:09:28;0.73;;;0.73;;
60308;SDS011;50313;52.894;6.492;2023-04-24T11:12:20;0.90;;;0.90;;
60308;SDS011;50313;52.894;6.492;2023-04-24T11:17:44;0.50;;;0.50;;
60308;SDS011;50313;52.894;6.492;2023-04-24T11:20:16;3.45;;;0.82;;
60308;SDS011;50313;52.894;6.492;2023-04-24T11:22:48;8.63;;;1.17;;
60308;SDS011;50313;52.894;6.492;2023-04-24T11:25:28;0.40;;;0.40;;
60308;SDS011;50313;52.894;6.492;2023-04-24T11:28:15;1.17;;;1.13;;
60308;SDS011;50313;52.894;6.492;2023-04-24T11:30:55;4.55;;;1.05;;
60308;SDS011;50313;52.894;6.492;2023-04-24T11:33:27;0.30;;;0.30;;
60308;SDS011;50313;52.894;6.492;2023-04-24T11:36:10;0.35;;;0.35;;
60308;SDS011;50313;52.894;6.492;2023-04-24T11:39:04;0.60;;;0.60;;
60308;SDS011;50313;52.894;6.492;2023-04-24T11:41:42;0.75;;;0.75;;
60308;SDS011;50313;52.894;6.492;2023-04-24T11:44:35;1.92;;;0.68;;
60308;SDS011;50313;52.894;6.492;2023-04-24T11:47:16;1.08;;;0.50;;
60308;SDS011;50313;52.894;6.492;2023-04-24T11:49:50;0.60;;;0.60;;
60308;SDS011;50313;52.894;6.492;2023-04-24T11:52:19;0.40;;;0.40;;
60308;SDS011;50313;52.894;6.492;2023-04-24T11:54:50;2.45;;;1.05;;
60308;SDS011;50313;52.894;6.492;2023-04-24T11:57:26;0.40;;;0.40;;
60308;SDS011;50313;52.894;6.492;2023-04-24T11:59:58;3.45;;;0.98;;
60308;SDS011;50313;52.894;6.492;2023-04-24T12:02:31;1.13;;;0.93;;
60308;SDS011;50313;52.894;6.492;2023-04-24T12:05:06;1.85;;;0.52;;
60308;SDS011;50313;52.894;6.492;2023-04-24T12:07:32;0.40;;;0.40;;
60308;SDS011;50313;52.894;6.492;2023-04-24T12:10:07;0.43;;;0.43;;
60308;SDS011;50313;52.894;6.492;2023-04-24T12:12:36;0.98;;;0.68;;
60308;SDS011;50313;52.894;6.492;2023-04-24T12:15:05;1.58;;;1.13;;
60308;SDS011;50313;52.894;6.492;2023-04-24T12:17:33;7.72;;;0.93;;
60308;SDS011;50313;52.894;6.492;2023-04-24T12:20:06;10.15;;;2.05;;
60308;SDS011;50313;52.894;6.492;2023-04-24T12:25:16;2.28;;;0.80;;
60308;SDS011;50313;52.894;6.492;2023-04-24T12:27:45;0.30;;;0.30;;
60308;SDS011;50313;52.894;6.492;2023-04-24T12:30:26;0.40;;;0.40;;
60308;SDS011;50313;52.894;6.492;2023-04-24T12:32:57;1.00;;;0.77;;
60308;SDS011;50313;52.894;6.492;2023-04-24T12:35:27;0.20;;;0.20;;
60308;SDS011;50313;52.894;6.492;2023-04-24T12:38:21;0.30;;;0.30;;
60308;SDS011;50313;52.894;6.492;2023-04-24T12:40:46;1.45;;;0.65;;
60308;SDS011;50313;52.894;6.492;2023-04-24T12:43:16;0.40;;;0.40;;
60308;SDS011;50313;52.894;6.492;2023-04-24T12:45:43;0.82;;;0.82;;
60308;SDS011;50313;52.894;6.492;2023-04-24T12:48:17;0.60;;;0.60;;
60308;SDS011;50313;52.894;6.492;2023-04-24T12:50:43;0.85;;;0.85;;
60308;SDS011;50313;52.894;6.492;2023-04-24T12:53:14;0.40;;;0.40;;
60308;SDS011;50313;52.894;6.492;2023-04-24T12:55:54;0.30;;;0.30;;
60308;SDS011;50313;52.894;6.492;2023-04-24T12:58:37;0.20;;;0.20;;
60308;SDS011;50313;52.894;6.492;2023-04-24T13:01:11;0.63;;;0.63;;
60308;SDS011;50313;52.894;6.492;2023-04-24T13:03:39;0.88;;;0.85;;
60308;SDS011;50313;52.894;6.492;2023-04-24T13:06:16;0.40;;;0.40;;
60308;SDS011;50313;52.894;6.492;2023-04-24T13:09:00;0.60;;;0.60;;
60308;SDS011;50313;52.894;6.492;2023-04-24T13:11:31;0.20;;;0.20;;
60308;SDS011;50313;52.894;6.492;2023-04-24T13:14:23;0.60;;;0.60;;
60308;SDS011;50313;52.894;6.492;2023-04-24T13:17:00;0.30;;;0.30;;
60308;SDS011;50313;52.894;6.492;2023-04-24T13:19:37;0.30;;;0.30;;
60308;SDS011;50313;52.894;6.492;2023-04-24T13:22:08;2.05;;;0.60;;
60308;SDS011;50313;52.894;6.492;2023-04-24T13:24:35;0.63;;;0.63;;
60308;SDS011;50313;52.894;6.492;2023-04-24T13:27:07;0.50;;;0.50;;
60308;SDS011;50313;52.894;6.492;2023-04-24T13:29:36;0.90;;;0.55;;
60308;SDS011;50313;52.894;6.492;2023-04-24T13:32:04;0.80;;;0.80;;
60308;SDS011;50313;52.894;6.492;2023-04-24T13:34:31;0.85;;;0.77;;
60308;SDS011;50313;52.894;6.492;2023-04-24T13:36:57;0.32;;;0.32;;
60308;SDS011;50313;52.894;6.492;2023-04-24T13:39:24;0.80;;;0.43;;
60308;SDS011;50313;52.894;6.492;2023-04-24T13:41:50;2.28;;;1.40;;
60308;SDS011;50313;52.894;6.492;2023-04-24T13:44:18;0.55;;;0.55;;
60308;SDS011;50313;52.894;6.492;2023-04-24T13:46:47;0.40;;;0.40;;
60308;SDS011;50313;52.894;6.492;2023-04-24T13:49:17;2.28;;;0.88;;
60308;SDS011;50313;52.894;6.492;2023-04-24T13:51:46;0.32;;;0.32;;
60308;SDS011;50313;52.894;6.492;2023-04-24T13:54:16;0.40;;;0.40;;
60308;SDS011;50313;52.894;6.492;2023-04-24T13:56:48;0.38;;;0.38;;
60308;SDS011;50313;52.894;6.492;2023-04-24T13:59:14;0.30;;;0.30;;
60308;SDS011;50313;52.894;6.492;2023-04-24T14:01:40;0.28;;;0.28;;
60308;SDS011;50313;52.894;6.492;2023-04-24T14:04:11;0.80;;;0.80;;
60308;SDS011;50313;52.894;6.492;2023-04-24T14:06:37;4.68;;;0.90;;
60308;SDS011;50313;52.894;6.492;2023-04-24T14:09:09;1.08;;;0.68;;
60308;SDS011;50313;52.894;6.492;2023-04-24T14:11:35;0.43;;;0.43;;
60308;SDS011;50313;52.894;6.492;2023-04-24T14:14:13;0.93;;;0.30;;
60308;SDS011;50313;52.894;6.492;2023-04-24T14:16:42;2.33;;;0.90;;
60308;SDS011;50313;52.894;6.492;2023-04-24T14:19:08;1.48;;;1.35;;
60308;SDS011;50313;52.894;6.492;2023-04-24T14:21:36;2.25;;;0.88;;
60308;SDS011;50313;52.894;6.492;2023-04-24T14:24:05;0.77;;;0.77;;
60308;SDS011;50313;52.894;6.492;2023-04-24T14:26:31;7.88;;;0.68;;
60308;SDS011;50313;52.894;6.492;2023-04-24T14:28:57;0.95;;;0.60;;
60308;SDS011;50313;52.894;6.492;2023-04-24T14:31:25;0.68;;;0.68;;
60308;SDS011;50313;52.894;6.492;2023-04-24T14:33:56;2.72;;;0.63;;
60308;SDS011;50313;52.894;6.492;2023-04-24T14:36:31;0.60;;;0.60;;
60308;SDS011;50313;52.894;6.492;2023-04-24T14:39:07;4.03;;;1.15;;
60308;SDS011;50313;52.894;6.492;2023-04-24T14:41:36;3.03;;;0.50;;
60308;SDS011;50313;52.894;6.492;2023-04-24T14:44:04;1.45;;;0.77;;
60308;SDS011;50313;52.894;6.492;2023-04-24T14:46:41;1.60;;;1.20;;
60308;SDS011;50313;52.894;6.492;2023-04-24T14:49:09;3.72;;;1.02;;
60308;SDS011;50313;52.894;6.492;2023-04-24T14:51:38;0.90;;;0.77;;
60308;SDS011;50313;52.894;6.492;2023-04-24T14:54:10;1.55;;;0.60;;
60308;SDS011;50313;52.894;6.492;2023-04-24T14:56:41;2.38;;;1.15;;
60308;SDS011;50313;52.894;6.492;2023-04-24T14:59:16;4.75;;;0.88;;
60308;SDS011;50313;52.894;6.492;2023-04-24T15:01:47;0.77;;;0.52;;
60308;SDS011;50313;52.894;6.492;2023-04-24T15:04:25;9.32;;;1.75;;
60308;SDS011;50313;52.894;6.492;2023-04-24T15:06:56;4.18;;;0.73;;
60308;SDS011;50313;52.894;6.492;2023-04-24T15:09:24;2.10;;;1.17;;
60308;SDS011;50313;52.894;6.492;2023-04-24T15:12:00;0.60;;;0.60;;
60308;SDS011;50313;52.894;6.492;2023-04-24T15:14:26;3.05;;;1.02;;
60308;SDS011;50313;52.894;6.492;2023-04-24T15:16:58;4.85;;;0.70;;